Time;durP1;ratioP1;P1;durP2;ratioP2;P2;SDS_P1;SDS_P2;PMS_P1;PMS_P2;Temp;Humidity;BMP_temperature;BMP_pressure;BME280_temperature;BME280_humidity;BME280_pressure;Samples;Min_cycle;Max_cycle;Signal;HPM_P1;HPM_P2
2023/05/27 00:00:03;;;;;;;11.98;8.68;;;;;;;17.41;100.00;99932.94;4986688;28;20486;-19
2023/05/27 00:02:29;;;;;;;12.75;8.18;;;;;;;17.41;100.00;99938.34;4986393;28;20038;-18
2023/05/27 00:04:54;;;;;;;13.82;9.27;;;;;;;17.41;100.00;99938.34;4986763;28;20022;-18
2023/05/27 00:07:20;;;;;;;11.35;8.27;;;;;;;17.45;100.00;99942.94;4987615;28;20026;-18
2023/05/27 00:09:45;;;;;;;13.90;8.25;;;;;;;17.32;100.00;99939.94;4990563;28;20058;-18
2023/05/27 00:12:11;;;;;;;10.65;7.75;;;;;;;17.40;100.00;99942.09;4990285;28;20026;-19
2023/05/27 00:14:36;;;;;;;13.32;7.40;;;;;;;17.45;100.00;99928.66;4990027;28;20034;-18
2023/05/27 00:17:03;;;;;;;10.85;7.90;;;;;;;17.40;100.00;99942.09;4990121;28;20093;-27
2023/05/27 00:19:30;;;;;;;10.90;7.32;;;;;;;17.47;100.00;99945.34;4989900;28;20034;-18
2023/05/27 00:21:56;;;;;;;10.27;7.00;;;;;;;17.35;100.00;99944.81;4990083;28;20027;-19
2023/05/27 00:24:21;;;;;;;11.75;7.32;;;;;;;17.44;100.00;99943.97;4989738;28;20018;-18
2023/05/27 00:26:47;;;;;;;10.00;7.55;;;;;;;17.48;100.00;99944.25;4990299;28;20468;-18
2023/05/27 00:29:13;;;;;;;9.73;6.68;;;;;;;17.40;100.00;99929.41;4989750;28;20042;-18
2023/05/27 00:31:38;;;;;;;8.45;6.80;;;;;;;17.54;100.00;99927.03;4990084;28;20023;-18
2023/05/27 00:34:03;;;;;;;11.65;7.03;;;;;;;17.45;100.00;99925.94;4989908;28;20026;-18
2023/05/27 00:36:31;;;;;;;11.93;7.15;;;;;;;17.42;100.00;99931.84;4989699;28;20395;-20
2023/05/27 00:38:57;;;;;;;11.18;7.35;;;;;;;17.51;100.00;99921.34;4989791;28;20493;-18
2023/05/27 00:41:22;;;;;;;11.38;7.63;;;;;;;17.43;100.00;99915.44;4989554;28;20050;-18
2023/05/27 00:43:48;;;;;;;9.02;6.90;;;;;;;17.57;100.00;99913.00;4989908;28;20045;-18
2023/05/27 00:46:14;;;;;;;10.80;6.72;;;;;;;17.58;100.00;99909.22;4989523;28;20026;-18
2023/05/27 00:48:40;;;;;;;10.63;7.13;;;;;;;17.50;100.00;99915.16;4989729;28;20026;-18
2023/05/27 00:51:06;;;;;;;13.13;6.93;;;;;;;17.52;100.00;99918.38;4989281;28;20444;-18
2023/05/27 00:53:42;;;;;;;10.52;7.43;;;;;;;17.37;100.00;99907.59;4989443;28;20498;-18
2023/05/27 00:56:09;;;;;;;8.93;6.97;;;;;;;17.23;100.00;99921.59;4989325;28;20026;-18
2023/05/27 00:58:37;;;;;;;9.55;6.97;;;;;;;17.10;100.00;99916.72;4989452;28;20124;-17
2023/05/27 01:01:03;;;;;;;12.65;6.97;;;;;;;17.23;100.00;99918.09;4989201;28;20034;-18
2023/05/27 01:03:32;;;;;;;11.13;7.28;;;;;;;17.45;100.00;99917.84;4989377;28;20026;-18
2023/05/27 01:06:14;;;;;;;10.45;6.70;;;;;;;17.38;100.00;99903.81;4989243;28;20133;-18
2023/05/27 01:09:14;;;;;;;10.85;6.78;;;;;;;17.45;100.00;99921.34;4989126;28;20050;-18
2023/05/27 01:12:14;;;;;;;10.43;7.15;;;;;;;17.23;100.00;99924.28;4989226;28;20844;-18
2023/05/27 01:14:43;;;;;;;9.73;7.13;;;;;;;17.23;100.00;99897.34;4988949;28;20822;-18
2023/05/27 01:17:10;;;;;;;10.57;7.47;;;;;;;17.03;100.00;99911.56;4989259;28;20430;-19
2023/05/27 01:19:42;;;;;;;11.55;6.88;;;;;;;17.12;100.00;99913.72;4987914;28;20034;-18
2023/05/27 01:22:11;;;;;;;10.63;7.22;;;;;;;17.17;100.00;99906.47;4989093;28;20040;-18
2023/05/27 01:24:37;;;;;;;10.60;7.57;;;;;;;17.36;100.00;99908.66;4988862;28;20025;-19
2023/05/27 01:27:03;;;;;;;15.80;8.45;;;;;;;17.39;100.00;99902.75;4988969;28;20038;-20
2023/05/27 01:29:30;;;;;;;10.82;7.03;;;;;;;16.95;100.00;99904.00;4988517;28;20062;-19
2023/05/27 01:31:55;;;;;;;14.43;8.27;;;;;;;17.14;100.00;99880.09;4988875;28;20033;-18
2023/05/27 01:34:28;;;;;;;11.65;7.80;;;;;;;16.96;100.00;99883.25;4988821;28;20042;-21
2023/05/27 01:37:00;;;;;;;11.13;8.05;;;;;;;17.07;100.00;99876.81;4988558;28;20501;-19
2023/05/27 01:39:26;;;;;;;12.48;7.35;;;;;;;17.14;100.00;99880.09;4988848;28;20089;-19
2023/05/27 01:41:53;;;;;;;11.38;8.50;;;;;;;17.06;100.00;99876.03;4988263;28;20608;-18
2023/05/27 01:44:19;;;;;;;10.88;8.13;;;;;;;16.97;100.00;99882.19;4988730;28;20117;-18
2023/05/27 01:46:45;;;;;;;12.52;7.78;;;;;;;16.95;100.00;99885.13;4988377;28;20180;-18
2023/05/27 01:49:10;;;;;;;12.00;8.05;;;;;;;16.96;100.00;99891.31;4988315;28;20399;-18
2023/05/27 01:51:36;;;;;;;11.63;7.15;;;;;;;16.85;100.00;99888.59;4988328;28;20583;-20
2023/05/27 01:54:02;;;;;;;8.60;6.55;;;;;;;16.97;100.00;99879.50;4988478;28;20030;-18
2023/05/27 01:56:29;;;;;;;8.38;6.43;;;;;;;16.94;100.00;99888.09;4988338;28;20030;-18
2023/05/27 01:58:54;;;;;;;10.02;6.50;;;;;;;16.86;100.00;99890.25;4988379;28;20026;-19
2023/05/27 02:01:21;;;;;;;10.55;7.43;;;;;;;16.97;100.00;99892.97;4988675;28;20370;-18
2023/05/27 02:03:47;;;;;;;8.77;6.15;;;;;;;16.76;100.00;99889.38;4988411;28;20095;-18
2023/05/27 02:06:12;;;;;;;12.57;6.32;;;;;;;16.78;100.00;99898.00;4988224;28;20555;-18
2023/05/27 02:08:38;;;;;;;10.52;5.80;;;;;;;16.82;100.00;99886.47;4988153;28;20034;-18
2023/05/27 02:11:03;;;;;;;9.27;6.55;;;;;;;16.84;100.00;99881.63;4988096;28;20030;-18
2023/05/27 02:13:29;;;;;;;8.73;6.25;;;;;;;16.84;100.00;99887.00;4988106;28;20030;-18
2023/05/27 02:15:54;;;;;;;10.70;6.47;;;;;;;16.79;100.00;99884.25;4988233;28;20053;-19
2023/05/27 02:18:20;;;;;;;9.73;6.22;;;;;;;16.93;100.00;99894.56;4988396;28;20041;-18
2023/05/27 02:20:46;;;;;;;9.63;6.72;;;;;;;16.77;100.00;99880.22;4987860;28;20120;-18
2023/05/27 02:23:12;;;;;;;10.95;6.13;;;;;;;16.94;100.00;99896.16;4987987;28;20092;-18
2023/05/27 02:25:37;;;;;;;12.13;6.50;;;;;;;16.85;100.00;99899.38;4987994;28;20022;-18
2023/05/27 02:28:02;;;;;;;9.65;5.93;;;;;;;16.91;100.00;99894.81;4987922;28;20026;-19
2023/05/27 02:30:31;;;;;;;8.02;5.65;;;;;;;17.04;100.00;99896.19;4987770;28;20497;-18
2023/05/27 02:32:57;;;;;;;8.00;5.65;;;;;;;17.00;100.00;99900.50;4987520;28;20049;-18
2023/05/27 02:35:22;;;;;;;9.25;5.88;;;;;;;17.13;100.00;99905.41;4987736;28;20421;-19
2023/05/27 02:37:48;;;;;;;9.40;5.82;;;;;;;17.18;100.00;99901.91;4987687;28;20089;-18
2023/05/27 02:40:25;;;;;;;8.13;5.63;;;;;;;17.10;100.00;99905.94;4987516;28;20030;-19
2023/05/27 02:42:51;;;;;;;10.93;6.80;;;;;;;17.23;100.00;99908.09;4987574;28;20070;-19
2023/05/27 02:45:16;;;;;;;9.15;6.15;;;;;;;17.19;100.00;99911.63;4987402;28;20065;-18
2023/05/27 02:47:42;;;;;;;10.77;6.63;;;;;;;16.99;100.00;99888.13;4987337;28;20042;-18
2023/05/27 02:50:07;;;;;;;10.93;6.20;;;;;;;17.08;100.00;99902.72;4987517;28;20081;-18
2023/05/27 02:52:33;;;;;;;8.60;6.30;;;;;;;17.14;100.00;99901.63;4987009;28;20042;-17
2023/05/27 02:54:58;;;;;;;8.70;6.25;;;;;;;17.16;100.00;99909.44;4987496;28;20026;-18
2023/05/27 02:57:24;;;;;;;8.48;5.43;;;;;;;16.99;100.00;99905.09;4987467;28;20150;-19
2023/05/27 02:59:49;;;;;;;7.85;5.45;;;;;;;17.07;100.00;99901.06;4987303;28;20026;-19
2023/05/27 03:02:15;;;;;;;13.63;6.68;;;;;;;17.16;100.00;99918.34;4987162;28;20026;-19
2023/05/27 03:04:40;;;;;;;11.15;6.10;;;;;;;16.93;100.00;99908.03;4986971;28;20073;-19
2023/05/27 03:07:06;;;;;;;10.40;5.80;;;;;;;16.81;100.00;99906.38;4987175;28;20027;-18
2023/05/27 03:09:31;;;;;;;8.75;5.88;;;;;;;17.08;100.00;99913.47;4987225;28;20466;-18
2023/05/27 03:11:56;;;;;;;11.05;6.40;;;;;;;17.04;100.00;99913.19;4987245;28;20057;-18
2023/05/27 03:14:22;;;;;;;8.32;6.18;;;;;;;16.95;100.00;99904.00;4987197;28;20038;-18
2023/05/27 03:16:48;;;;;;;10.85;5.90;;;;;;;16.94;100.00;99915.03;4987067;28;20023;-19
2023/05/27 03:19:13;;;;;;;8.88;5.50;;;;;;;16.98;100.00;99924.19;4986962;28;20405;-18
2023/05/27 03:21:39;;;;;;;10.32;5.93;;;;;;;16.87;100.00;99929.56;4986912;28;20034;-18
2023/05/27 03:24:04;;;;;;;10.30;5.63;;;;;;;17.06;100.00;99931.75;4987166;28;20038;-18
2023/05/27 03:26:30;;;;;;;10.52;6.13;;;;;;;17.20;100.00;99932.06;4986898;28;20030;-18
2023/05/27 03:28:56;;;;;;;8.15;5.75;;;;;;;17.04;100.00;99928.53;4987146;28;20019;-19
2023/05/27 03:31:21;;;;;;;8.25;5.13;;;;;;;16.93;100.00;99927.69;4987161;28;20062;-18
2023/05/27 03:33:47;;;;;;;8.85;5.93;;;;;;;17.02;100.00;99930.69;4987016;28;20524;-18
2023/05/27 03:36:12;;;;;;;10.68;6.13;;;;;;;17.18;100.00;99936.94;4986683;28;20652;-18
2023/05/27 03:38:38;;;;;;;8.02;5.70;;;;;;;17.23;100.00;99932.38;4986751;28;20026;-18
2023/05/27 03:41:03;;;;;;;7.65;5.55;;;;;;;17.07;100.00;99933.41;4986440;28;20112;-18
2023/05/27 03:43:29;;;;;;;9.40;6.10;;;;;;;17.27;100.00;99933.44;4989694;28;20053;-19
2023/05/27 03:45:54;;;;;;;10.25;6.13;;;;;;;17.36;100.00;99941.00;4990785;28;20096;-18
2023/05/27 03:48:19;;;;;;;11.05;6.22;;;;;;;17.20;100.00;99927.53;4990417;28;20482;-18
2023/05/27 03:50:45;;;;;;;9.77;6.50;;;;;;;17.18;100.00;99943.16;4990603;28;20027;-18
2023/05/27 03:53:10;;;;;;;10.55;6.00;;;;;;;17.27;100.00;99946.94;4990577;28;20072;-19
2023/05/27 03:55:36;;;;;;;9.07;6.13;;;;;;;17.45;100.00;99955.59;4990635;28;20060;-18
2023/05/27 03:58:01;;;;;;;8.55;6.15;;;;;;;17.51;100.00;99959.94;4990487;28;20038;-18
2023/05/27 04:00:28;;;;;;;8.95;6.43;;;;;;;17.40;100.00;99960.97;4990555;28;20026;-19
2023/05/27 04:02:53;;;;;;;12.25;6.50;;;;;;;17.45;100.00;99953.72;4990520;28;20034;-19
2023/05/27 04:05:19;;;;;;;10.55;6.70;;;;;;;17.60;100.00;99963.69;4990372;28;20102;-18
2023/05/27 04:07:44;;;;;;;11.55;6.93;;;;;;;17.67;100.00;99958.88;4990488;28;20034;-18
2023/05/27 04:10:10;;;;;;;11.73;6.63;;;;;;;17.77;100.00;99963.44;4990212;28;20456;-19
2023/05/27 04:12:36;;;;;;;11.27;6.45;;;;;;;17.90;100.00;99962.13;4990540;28;20042;-19
2023/05/27 04:15:01;;;;;;;11.32;6.60;;;;;;;17.80;100.00;99962.09;4990219;28;20027;-18
2023/05/27 04:17:26;;;;;;;10.82;6.88;;;;;;;17.74;100.00;99958.59;4990324;28;20034;-21
2023/05/27 04:19:52;;;;;;;9.30;6.55;;;;;;;17.76;100.00;99952.94;4990231;28;20038;-18
2023/05/27 04:22:17;;;;;;;10.23;6.88;;;;;;;17.77;100.00;99968.03;4989805;28;20037;-18
2023/05/27 04:24:43;;;;;;;9.35;6.18;;;;;;;17.81;100.00;99958.31;4989929;28;20104;-18
2023/05/27 04:27:09;;;;;;;9.63;6.53;;;;;;;17.93;100.00;99960.78;4990075;28;20022;-19
2023/05/27 04:29:35;;;;;;;9.95;6.28;;;;;;;17.91;100.00;99961.03;4989924;28;20022;-18
2023/05/27 04:32:00;;;;;;;11.48;6.70;;;;;;;18.04;100.00;99963.22;4989801;28;20041;-19
2023/05/27 04:34:26;;;;;;;12.07;6.60;;;;;;;18.08;100.00;99968.84;4990111;28;20029;-18
2023/05/27 04:36:51;;;;;;;11.63;6.93;;;;;;;18.11;100.00;99967.53;4989707;28;20478;-18
2023/05/27 04:39:17;;;;;;;7.88;6.30;;;;;;;18.01;100.00;99966.44;4989639;28;20031;-19
2023/05/27 04:41:43;;;;;;;10.25;6.18;;;;;;;18.04;100.00;99963.22;4989377;28;20553;-18
2023/05/27 04:44:09;;;;;;;7.88;6.13;;;;;;;18.03;100.00;99961.59;4989494;28;20034;-17
2023/05/27 04:46:34;;;;;;;10.20;6.30;;;;;;;18.16;100.00;99967.50;4989650;28;20033;-19
2023/05/27 04:49:00;;;;;;;10.07;5.88;;;;;;;18.23;100.00;99965.34;4989696;28;20061;-19
2023/05/27 04:51:25;;;;;;;8.88;6.22;;;;;;;18.35;100.00;99962.34;4989726;28;20481;-22
2023/05/27 04:53:51;;;;;;;10.13;6.28;;;;;;;18.49;100.00;99960.72;4988137;28;20398;-18
2023/05/27 04:56:17;;;;;;;13.85;7.13;;;;;;;18.37;100.00;99966.41;4989300;28;20031;-18
2023/05/27 04:58:48;;;;;;;11.68;7.57;;;;;;;18.47;100.00;99965.59;4989722;28;20062;-18
2023/05/27 05:01:17;;;;;;;10.35;7.90;;;;;;;18.36;100.00;99948.59;4989328;28;20034;-19
2023/05/27 05:06:29;;;;;;;9.10;7.28;;;;;;;18.51;100.00;99966.66;4989669;28;20084;-18
2023/05/27 05:08:54;;;;;;;8.82;6.25;;;;;;;18.81;100.00;99973.06;4989526;28;20038;-18
2023/05/27 05:11:21;;;;;;;9.63;6.78;;;;;;;18.73;100.00;99969.00;4989142;28;20030;-17
2023/05/27 05:13:46;;;;;;;11.38;6.55;;;;;;;18.94;100.00;99950.88;4988804;28;20417;-18
2023/05/27 05:16:12;;;;;;;10.57;6.72;;;;;;;19.16;100.00;99958.56;4989273;28;20026;-18
2023/05/27 05:18:37;;;;;;;8.45;6.03;;;;;;;19.00;100.00;99973.25;4989019;28;20019;-19
2023/05/27 05:21:03;;;;;;;9.80;6.38;;;;;;;19.00;100.00;99973.25;4989022;28;20065;-18
2023/05/27 05:23:28;;;;;;;9.88;6.50;;;;;;;19.00;100.00;99962.44;4988982;28;20496;-21
2023/05/27 05:25:58;;;;;;;12.15;10.95;;;;;;;19.22;100.00;99970.97;4988950;28;20034;-19
2023/05/27 05:28:23;;;;;;;10.98;6.55;;;;;;;19.30;100.00;99976.91;4988870;28;20026;-20
2023/05/27 05:30:48;;;;;;;7.47;6.00;;;;;;;19.33;100.00;99982.56;4988821;28;20034;-17
2023/05/27 05:33:14;;;;;;;8.25;7.30;;;;;;;19.38;100.00;99981.72;4988618;28;20097;-17
2023/05/27 05:35:40;;;;;;;11.93;8.52;;;;;;;19.48;100.00;99978.97;4988768;28;20058;-19
2023/05/27 05:38:05;;;;;;;9.25;6.13;;;;;;;19.58;100.00;99991.63;4988913;28;20026;-19
2023/05/27 05:40:30;;;;;;;9.13;5.70;;;;;;;19.67;100.00;99984.50;4988266;28;20532;-18
2023/05/27 05:42:56;;;;;;;12.65;5.53;;;;;;;19.51;100.00;99994.59;4988674;28;20034;-19
2023/05/27 05:45:21;;;;;;;7.97;5.53;;;;;;;19.43;100.00;99987.91;4988213;28;20052;-18
2023/05/27 05:47:47;;;;;;;7.45;5.30;;;;;;;19.45;100.00;99990.31;4988257;28;20456;-18
2023/05/27 05:50:12;;;;;;;10.43;5.25;;;;;;;19.56;100.00;100002.72;5000414;28;20084;-20
2023/05/27 05:52:39;;;;;;;8.75;5.57;;;;;;;19.58;100.00;100005.94;5007350;28;20024;-18
2023/05/27 05:55:05;;;;;;;7.88;4.68;;;;;;;19.60;97.51;100016.50;5007353;28;20030;-18
2023/05/27 05:57:32;;;;;;;8.68;4.60;;;;;;;19.35;100.00;100017.41;5007376;28;20511;-18
2023/05/27 05:59:57;;;;;;;8.70;5.57;;;;;;;19.50;100.00;100017.34;5007705;28;20045;-18
2023/05/27 06:02:25;;;;;;;12.40;7.85;;;;;;;19.33;100.00;100012.31;5007289;28;20060;-18
2023/05/27 06:04:50;;;;;;;9.10;6.18;;;;;;;19.20;100.00;100011.00;5007220;28;20026;-18
2023/05/27 06:07:16;;;;;;;6.10;4.72;;;;;;;19.04;100.00;100006.75;5007155;28;20413;-18
2023/05/27 06:09:41;;;;;;;9.73;5.65;;;;;;;19.15;100.00;100008.34;5007494;28;20013;-18
2023/05/27 06:12:07;;;;;;;7.40;5.13;;;;;;;19.29;100.00;100022.06;5007569;28;20022;-18
2023/05/27 06:14:32;;;;;;;7.35;4.10;;;;;;;19.15;100.00;100016.44;5007556;28;20401;-19
2023/05/27 06:16:58;;;;;;;6.82;4.40;;;;;;;19.17;100.00;100021.59;5007864;28;20034;-18
2023/05/27 06:19:23;;;;;;;7.68;4.97;;;;;;;18.85;100.00;100010.06;5007408;28;20385;-18
2023/05/27 06:21:48;;;;;;;5.90;4.20;;;;;;;19.00;100.00;100020.03;5007481;28;20029;-18
2023/05/27 06:24:15;;;;;;;7.22;5.50;;;;;;;18.83;100.00;100017.63;5007482;28;20056;-18
2023/05/27 06:26:40;;;;;;;8.60;4.60;;;;;;;18.92;100.00;100020.59;5007363;28;20045;-18
2023/05/27 06:29:06;;;;;;;7.35;5.07;;;;;;;19.00;100.00;100027.31;5007108;28;20041;-18
2023/05/27 06:31:33;;;;;;;10.40;5.32;;;;;;;19.17;100.00;100033.19;4989433;28;20032;-18
2023/05/27 06:33:58;;;;;;;7.32;4.68;;;;;;;19.23;100.00;100032.09;5007476;28;20062;-18
2023/05/27 06:36:24;;;;;;;5.80;4.20;;;;;;;19.19;100.00;100036.44;5006988;28;20065;-18
2023/05/27 06:38:49;;;;;;;7.80;4.82;;;;;;;19.23;100.00;100036.69;5007316;28;20034;-18
2023/05/27 06:41:15;;;;;;;6.53;4.10;;;;;;;19.10;100.00;100035.38;5006524;28;20046;-19
2023/05/27 06:43:42;;;;;;;8.48;5.05;;;;;;;19.22;100.00;100025.03;5006886;28;20029;-20
2023/05/27 06:46:08;;;;;;;7.18;4.97;;;;;;;19.35;100.00;100029.06;5006815;28;20053;-19
2023/05/27 06:48:34;;;;;;;7.70;4.65;;;;;;;19.21;100.00;100022.66;5007074;28;20088;-18
2023/05/27 06:50:59;;;;;;;9.65;4.47;;;;;;;19.20;100.00;100024.53;5006479;28;20461;-21
2023/05/27 06:53:25;;;;;;;6.55;4.82;;;;;;;19.36;100.00;100029.88;5006717;28;20124;-18
2023/05/27 06:55:51;;;;;;;9.32;5.95;;;;;;;19.63;100.00;100024.81;5006829;28;20033;-18
2023/05/27 06:58:16;;;;;;;7.70;4.95;;;;;;;19.78;100.00;100034.00;5006234;28;20033;-18
2023/05/27 07:00:42;;;;;;;9.10;4.90;;;;;;;19.96;100.00;100038.75;4987899;28;20057;-18
2023/05/27 07:03:07;;;;;;;7.55;4.65;;;;;;;20.05;100.00;100033.53;5005787;28;20508;-18
2023/05/27 07:05:32;;;;;;;5.82;3.88;;;;;;;20.25;100.00;100027.94;5006222;28;20022;-18
2023/05/27 07:07:58;;;;;;;6.53;4.03;;;;;;;20.52;96.93;100020.41;5006146;28;20026;-18
2023/05/27 07:10:23;;;;;;;6.30;3.72;;;;;;;20.62;96.57;100034.66;5006218;28;20037;-18
2023/05/27 07:12:49;;;;;;;7.10;4.22;;;;;;;21.03;94.41;100041.56;5005944;28;20061;-19
2023/05/27 07:15:14;;;;;;;7.03;3.55;;;;;;;21.14;92.51;100045.75;5006676;28;20468;-18
2023/05/27 07:17:40;;;;;;;6.22;3.53;;;;;;;21.15;95.13;100033.81;5006179;28;20424;-19
2023/05/27 07:20:06;;;;;;;5.35;3.75;;;;;;;21.40;93.97;100040.00;5006457;28;20022;-18
2023/05/27 07:22:31;;;;;;;5.55;3.45;;;;;;;21.55;90.52;100042.53;5006706;28;20029;-24
2023/05/27 07:24:57;;;;;;;5.07;3.65;;;;;;;21.30;90.11;100035.50;5006339;28;20034;-18
2023/05/27 07:27:22;;;;;;;6.68;3.72;;;;;;;21.43;91.05;100036.72;5006956;28;20734;-18
2023/05/27 07:29:48;;;;;;;5.68;3.33;;;;;;;21.38;89.83;100043.00;5006407;28;20022;-18
2023/05/27 07:32:13;;;;;;;4.93;3.33;;;;;;;21.42;88.21;100035.09;5006661;28;20062;-19
2023/05/27 07:34:39;;;;;;;6.07;3.40;;;;;;;21.39;91.96;100035.66;5006444;28;20034;-18
2023/05/27 07:37:04;;;;;;;6.18;3.83;;;;;;;21.55;92.69;100039.81;5006349;28;20376;-19
2023/05/27 07:39:30;;;;;;;6.57;3.83;;;;;;;21.49;95.02;100030.13;5006515;28;20037;-19
2023/05/27 07:41:55;;;;;;;6.75;3.90;;;;;;;21.58;91.86;100044.66;5006073;28;20046;-18
2023/05/27 07:44:21;;;;;;;5.20;3.45;;;;;;;21.62;92.20;100040.28;5006439;28;20118;-18
2023/05/27 07:46:46;;;;;;;4.78;3.15;;;;;;;21.39;89.70;100031.06;5006337;28;20131;-19
2023/05/27 07:49:12;;;;;;;6.40;3.92;;;;;;;21.54;93.31;100038.22;5006382;28;20050;-18
2023/05/27 07:51:38;;;;;;;5.57;3.90;;;;;;;21.58;93.66;100033.81;5006202;28;20105;-18
2023/05/27 07:54:03;;;;;;;6.43;3.63;;;;;;;21.44;92.01;100025.59;5006372;28;20040;-21
2023/05/27 07:56:29;;;;;;;6.88;4.15;;;;;;;21.54;90.63;100035.50;5006525;28;20113;-17
2023/05/27 07:58:55;;;;;;;5.82;3.47;;;;;;;21.54;90.02;100042.84;5005983;28;20033;-18
2023/05/27 08:01:20;;;;;;;8.60;4.25;;;;;;;21.77;91.18;100038.44;5006325;28;20030;-18
2023/05/27 08:03:45;;;;;;;6.68;3.95;;;;;;;21.80;91.21;100045.97;5006066;28;20133;-23
2023/05/27 08:06:11;;;;;;;7.30;4.03;;;;;;;21.60;90.03;100042.47;5006275;28;20026;-18
2023/05/27 08:08:36;;;;;;;9.40;4.45;;;;;;;21.55;93.53;100056.09;5005985;28;20117;-19
2023/05/27 08:11:02;;;;;;;6.95;4.43;;;;;;;21.43;91.86;100053.00;5006384;28;20436;-22
2023/05/27 08:13:27;;;;;;;8.00;4.05;;;;;;;21.53;94.98;100047.44;5006133;28;20117;-19
2023/05/27 08:15:52;;;;;;;6.38;3.47;;;;;;;21.56;90.31;100052.28;5006200;28;20061;-18
2023/05/27 08:18:18;;;;;;;7.65;4.00;;;;;;;21.76;89.20;100061.22;5006243;28;20046;-18
2023/05/27 08:20:43;;;;;;;5.95;4.00;;;;;;;21.83;91.08;100061.69;4988456;28;21248;-18
2023/05/27 08:23:09;;;;;;;7.13;4.20;;;;;;;21.69;89.63;100060.81;5005920;28;20508;-19
2023/05/27 08:25:34;;;;;;;6.80;3.80;;;;;;;21.62;89.62;100058.47;5006065;28;20030;-18
2023/05/27 08:28:02;;;;;;;10.90;4.32;;;;;;;21.74;90.12;100049.88;5006851;28;20121;-18
2023/05/27 08:30:29;;;;;;;7.72;4.28;;;;;;;21.88;89.92;100069.75;5024245;28;20037;-18
2023/05/27 08:32:55;;;;;;;5.95;3.85;;;;;;;21.86;90.59;100077.38;5009829;28;20041;-19
2023/05/27 08:35:20;;;;;;;6.68;4.00;;;;;;;21.66;90.32;100067.63;5009622;28;20030;-18
2023/05/27 08:37:46;;;;;;;10.98;4.18;;;;;;;21.81;88.12;100075.56;5009391;28;20083;-20
2023/05/27 08:40:14;;;;;;;5.53;3.85;;;;;;;21.64;85.35;100076.06;5009306;28;20180;-17
2023/05/27 08:42:40;;;;;;;8.07;3.97;;;;;;;21.63;87.75;100074.44;5009029;28;20619;-18
2023/05/27 08:45:07;;;;;;;6.47;4.13;;;;;;;21.50;85.32;100058.88;5009391;28;20120;-18
2023/05/27 08:47:33;;;;;;;7.30;4.03;;;;;;;21.28;86.79;100073.78;5009286;28;20021;-18
2023/05/27 08:49:58;;;;;;;5.82;3.80;;;;;;;21.20;86.17;100066.28;5009327;28;20026;-20
2023/05/27 08:52:26;;;;;;;7.57;4.00;;;;;;;21.19;88.34;100080.94;5008806;28;20047;-18
2023/05/27 08:54:52;;;;;;;7.82;3.90;;;;;;;21.23;87.56;100075.75;5009321;28;20030;-19
2023/05/27 08:57:24;;;;;;;6.85;4.28;;;;;;;21.02;89.43;100045.34;5009009;28;20061;-18
2023/05/27 08:59:50;;;;;;;5.68;4.03;;;;;;;21.15;86.77;100074.50;5008994;28;20080;-19
2023/05/27 09:02:18;;;;;;;6.13;3.75;;;;;;;20.86;89.22;100059.09;5008777;28;20018;-19
2023/05/27 09:04:45;;;;;;;6.10;3.88;;;;;;;21.05;87.84;100071.91;5009387;28;20105;-18
2023/05/27 09:07:11;;;;;;;7.85;4.30;;;;;;;21.17;89.18;100066.88;5009070;28;20045;-18
2023/05/27 09:09:36;;;;;;;6.70;3.90;;;;;;;21.36;89.09;100063.38;5008740;28;20053;-19
2023/05/27 09:12:03;;;;;;;5.90;3.90;;;;;;;21.32;89.15;100062.34;5009177;28;20091;-18
2023/05/27 09:14:29;;;;;;;6.88;4.13;;;;;;;21.61;88.26;100060.34;5008587;28;20420;-18
2023/05/27 09:16:55;;;;;;;5.88;3.70;;;;;;;21.65;83.99;100060.59;5008974;28;20033;-17
2023/05/27 09:19:21;;;;;;;8.30;4.00;;;;;;;21.72;84.36;100054.78;5008561;28;20026;-18
2023/05/27 09:21:48;;;;;;;7.07;4.00;;;;;;;21.77;85.06;100058.22;5008678;28;20026;-18
2023/05/27 09:24:13;;;;;;;7.93;4.82;;;;;;;21.56;88.16;100052.28;5008417;28;20033;-19
2023/05/27 09:26:39;;;;;;;9.05;4.70;;;;;;;21.80;86.04;100054.13;5008703;28;20112;-18
2023/05/27 09:29:07;;;;;;;8.63;4.90;;;;;;;21.65;87.49;100055.94;5008792;28;20032;-18
2023/05/27 09:31:40;;;;;;;8.00;5.13;;;;;;;21.29;90.51;100036.63;5006085;28;20018;-18
2023/05/27 09:34:12;;;;;;;7.53;4.88;;;;;;;21.60;92.01;100044.38;4996669;28;20037;-22
2023/05/27 09:36:51;;;;;;;7.88;4.68;;;;;;;21.51;90.75;100044.22;4997382;28;20138;-19
2023/05/27 09:39:22;;;;;;;9.80;4.95;;;;;;;21.52;91.91;100050.47;4999709;28;20026;-27
2023/05/27 09:41:52;;;;;;;7.43;5.18;;;;;;;21.50;91.33;100047.25;4998383;28;20038;-18
2023/05/27 09:44:18;;;;;;;7.93;5.68;;;;;;;21.59;93.11;100048.97;4997676;28;20025;-19
2023/05/27 09:46:45;;;;;;;9.98;5.57;;;;;;;21.76;89.50;100031.38;4994876;28;20028;-18
2023/05/27 09:49:13;;;;;;;12.07;5.75;;;;;;;22.11;89.90;100037.34;5000271;28;20026;-18
2023/05/27 09:51:40;;;;;;;8.77;5.10;;;;;;;22.11;85.48;100026.50;5000273;28;20053;-19
2023/05/27 09:54:07;;;;;;;10.30;6.30;;;;;;;22.38;86.26;100040.19;4994523;28;20062;-18
2023/05/27 09:56:33;;;;;;;7.07;4.40;;;;;;;22.41;81.67;100045.03;4988601;28;20062;-19
2023/05/27 09:59:00;;;;;;;6.78;4.80;;;;;;;22.32;83.01;100041.38;4988453;28;20131;-19
2023/05/27 10:01:28;;;;;;;7.70;4.07;;;;;;;22.10;77.28;100038.47;4988277;28;20104;-19
2023/05/27 10:03:54;;;;;;;;;;;;;;;22.00;78.76;100037.50;4988821;28;20038;-19
2023/05/27 10:06:20;;;;;;;6.03;4.05;;;;;;;22.17;79.28;100038.88;4988281;28;21099;-19
2023/05/27 10:08:46;;;;;;;7.60;5.68;;;;;;;22.32;80.49;100035.97;4988122;28;20018;-19
2023/05/27 10:11:11;;;;;;;7.32;5.35;;;;;;;22.48;81.32;100028.34;4988250;28;20398;-18
2023/05/27 10:13:37;;;;;;;7.30;4.35;;;;;;;22.40;77.68;100016.25;4987756;28;20053;-19
2023/05/27 10:16:03;;;;;;;8.80;5.05;;;;;;;22.52;77.63;100031.28;4988163;28;20034;-18
2023/05/27 10:18:30;;;;;;;8.38;4.47;;;;;;;22.79;74.93;100016.91;4987910;28;20057;-18
2023/05/27 10:20:59;;;;;;;5.22;3.72;;;;;;;22.87;74.27;100016.19;4987894;28;20061;-17
2023/05/27 10:23:25;;;;;;;7.22;4.38;;;;;;;23.03;74.49;100006.66;4987677;28;20038;-18
2023/05/27 10:25:53;;;;;;;5.80;3.90;;;;;;;23.18;74.02;100002.00;4987739;28;20516;-18
2023/05/27 10:28:25;;;;;;;8.93;4.05;;;;;;;23.40;70.00;100006.69;4987600;28;20061;-18
2023/05/27 10:30:53;;;;;;;4.97;3.42;;;;;;;23.40;71.10;100009.44;4987479;28;20536;-18
2023/05/27 10:33:30;;;;;;;7.10;4.13;;;;;;;23.05;69.70;99992.75;4987454;28;20093;-17
2023/05/27 10:35:56;;;;;;;6.18;4.07;;;;;;;23.39;72.57;100007.81;4987712;28;20032;-18
2023/05/27 10:38:22;;;;;;;6.90;3.60;;;;;;;23.82;70.38;100001.94;4987644;28;20119;-18
2023/05/27 10:40:58;;;;;;;4.55;2.80;;;;;;;23.91;65.27;100008.28;4987118;28;20042;-19
2023/05/27 10:43:28;;;;;;;5.78;3.25;;;;;;;24.11;67.54;100006.97;4987348;28;20091;-19
2023/05/27 10:46:21;;;;;;;5.65;3.00;;;;;;;23.99;60.66;100009.44;4987403;28;20041;-19
2023/05/27 10:48:47;;;;;;;4.93;2.88;;;;;;;23.56;58.83;99991.63;4987055;28;20034;-19
2023/05/27 10:51:12;;;;;;;6.15;3.53;;;;;;;23.65;61.41;99995.22;4987312;28;20529;-18
2023/05/27 10:53:37;;;;;;;8.43;3.35;;;;;;;23.63;60.63;99997.44;4987240;28;20030;-19
2023/05/27 10:56:03;;;;;;;6.13;3.00;;;;;;;23.86;56.42;99989.31;4987382;28;20422;-18
2023/05/27 10:58:29;;;;;;;4.65;3.05;;;;;;;24.08;57.69;99985.78;4987265;28;20032;-18
2023/05/27 11:00:56;;;;;;;5.78;2.92;;;;;;;24.36;56.66;99985.63;4987154;28;20026;-19
2023/05/27 11:03:28;;;;;;;8.02;3.03;;;;;;;24.97;53.80;99991.34;4987300;28;20026;-18
2023/05/27 11:06:04;;;;;;;4.90;2.90;;;;;;;25.25;53.98;99989.16;4986846;28;20444;-18
2023/05/27 11:08:31;;;;;;;5.38;2.78;;;;;;;25.53;51.02;99988.88;4987107;28;20053;-19
2023/05/27 11:11:01;;;;;;;4.10;2.57;;;;;;;25.70;49.13;99993.53;4987036;28;20027;-19
2023/05/27 11:13:30;;;;;;;4.32;3.20;;;;;;;25.31;50.53;99976.16;4987152;28;20106;-19
2023/05/27 11:15:55;;;;;;;6.00;3.00;;;;;;;25.89;51.17;99972.16;4987079;28;20807;-18
2023/05/27 11:18:21;;;;;;;4.55;3.13;;;;;;;26.38;46.63;99980.88;4987154;28;20030;-18
2023/05/27 11:20:47;;;;;;;5.22;3.28;;;;;;;26.70;45.46;99970.47;4987061;28;20022;-19